createdAt,value
2022-12-31T00:01:27.094Z,5.53
2022-12-31T00:03:57.188Z,5.45
2022-12-31T00:06:33.180Z,5.46
2022-12-31T00:09:01.664Z,5.60
2022-12-31T00:11:29.883Z,5.55
2022-12-31T00:13:57.703Z,5.65
2022-12-31T00:16:25.994Z,5.68
2022-12-31T00:18:55.272Z,5.67
2022-12-31T00:21:22.879Z,5.75
2022-12-31T00:23:49.830Z,5.76
2022-12-31T00:26:22.625Z,5.78
2022-12-31T00:28:49.515Z,5.83
2022-12-31T00:31:19.357Z,5.92
2022-12-31T00:33:46.786Z,5.95
2022-12-31T00:36:16.440Z,5.95
2022-12-31T00:38:45.556Z,5.98
2022-12-31T00:41:13.908Z,5.96
2022-12-31T00:43:41.104Z,5.92
2022-12-31T00:46:09.428Z,5.97
2022-12-31T00:48:36.639Z,5.98
2022-12-31T00:51:05.937Z,5.55
2022-12-31T00:53:33.442Z,5.94
2022-12-31T00:56:06.931Z,5.85
2022-12-31T00:58:35.546Z,5.87
2022-12-31T01:01:16.464Z,5.77
2022-12-31T01:03:43.858Z,5.68
2022-12-31T01:06:11.161Z,5.61
2022-12-31T01:08:38.289Z,5.65
2022-12-31T01:11:22.448Z,5.56
2022-12-31T01:14:17.124Z,5.60
2022-12-31T01:16:47.678Z,5.53
2022-12-31T01:19:29.303Z,5.39
2022-12-31T01:21:57.246Z,5.55
2022-12-31T01:24:24.894Z,5.46
2022-12-31T01:26:52.021Z,5.49
2022-12-31T01:29:19.098Z,5.55
2022-12-31T01:31:46.058Z,5.48
2022-12-31T01:34:12.995Z,5.50
2022-12-31T01:36:40.188Z,5.58
2022-12-31T01:39:08.868Z,5.56
2022-12-31T01:41:39.298Z,5.53
2022-12-31T01:44:12.405Z,5.53
2022-12-31T01:46:47.352Z,5.50
2022-12-31T01:49:23.818Z,5.40
2022-12-31T01:52:05.196Z,5.45
2022-12-31T01:54:35.441Z,5.41
2022-12-31T01:57:03.712Z,5.40
2022-12-31T01:59:31.715Z,5.07
2022-12-31T02:01:59.993Z,5.32
2022-12-31T02:04:28.431Z,5.22
2022-12-31T02:07:00.126Z,5.24
2022-12-31T02:09:27.149Z,5.21
2022-12-31T02:11:54.116Z,5.21
2022-12-31T02:14:25.871Z,5.17
2022-12-31T02:17:08.435Z,5.19
2022-12-31T02:19:57.001Z,5.18
2022-12-31T02:22:42.715Z,5.17
2022-12-31T02:25:12.778Z,5.12
2022-12-31T02:27:42.616Z,5.09
2022-12-31T02:30:21.147Z,5.11
2022-12-31T02:33:02.641Z,5.03
2022-12-31T02:35:49.635Z,5.02
2022-12-31T02:38:39.327Z,4.98
2022-12-31T02:41:11.524Z,4.86
2022-12-31T02:43:46.799Z,4.48
2022-12-31T02:46:29.801Z,4.99
2022-12-31T02:49:10.974Z,5.02
2022-12-31T02:52:06.149Z,5.08
2022-12-31T02:54:51.526Z,5.03
2022-12-31T02:57:51.763Z,5.05
2022-12-31T03:00:37.688Z,5.07
2022-12-31T03:03:06.950Z,5.04
2022-12-31T03:05:39.447Z,4.98
2022-12-31T03:08:06.425Z,4.90
2022-12-31T03:10:33.515Z,4.95
2022-12-31T03:13:00.746Z,4.92
2022-12-31T03:15:30.809Z,4.92
2022-12-31T03:17:57.769Z,4.92
2022-12-31T03:20:48.454Z,4.45
2022-12-31T03:23:19.773Z,4.72
2022-12-31T03:25:47.174Z,4.75
2022-12-31T03:28:17.476Z,4.68
2022-12-31T03:30:48.101Z,4.48
2022-12-31T03:33:15.466Z,4.62
2022-12-31T03:35:44.292Z,4.62
2022-12-31T03:38:29.617Z,4.54
2022-12-31T03:40:56.624Z,4.48
2022-12-31T03:43:23.518Z,4.20
2022-12-31T03:45:53.167Z,4.46
2022-12-31T03:48:22.796Z,4.46
2022-12-31T03:50:50.662Z,4.38
2022-12-31T03:53:18.030Z,4.27
2022-12-31T03:55:45.054Z,4.33
2022-12-31T03:58:12.014Z,4.26
2022-12-31T04:00:39.211Z,3.96
2022-12-31T04:03:06.471Z,4.24
2022-12-31T04:05:33.798Z,4.23
2022-12-31T04:08:00.799Z,4.22
2022-12-31T04:10:27.837Z,4.12
2022-12-31T04:12:54.734Z,4.06
2022-12-31T04:15:21.945Z,4.20
2022-12-31T04:17:49.116Z,4.15
2022-12-31T04:20:16.837Z,4.18
2022-12-31T04:22:44.327Z,4.17
2022-12-31T04:25:11.799Z,4.06
2022-12-31T04:27:40.778Z,4.06
2022-12-31T04:30:09.899Z,4.02
2022-12-31T04:32:36.810Z,4.04
2022-12-31T04:35:04.157Z,3.97
2022-12-31T04:37:31.032Z,3.88
2022-12-31T04:40:03.551Z,3.89
2022-12-31T04:42:32.667Z,3.81
2022-12-31T04:44:59.495Z,3.79
2022-12-31T04:47:26.492Z,3.77
2022-12-31T04:49:53.423Z,3.80
2022-12-31T04:52:20.515Z,3.76
2022-12-31T04:54:47.412Z,3.62
2022-12-31T04:57:14.445Z,3.60
2022-12-31T04:59:41.335Z,3.55
2022-12-31T05:02:08.556Z,3.43
2022-12-31T05:04:35.633Z,3.41
2022-12-31T05:07:02.639Z,3.60
2022-12-31T05:09:29.851Z,3.61
2022-12-31T05:11:56.892Z,3.65
2022-12-31T05:14:23.723Z,3.65
2022-12-31T05:16:50.780Z,3.65
2022-12-31T05:19:17.687Z,3.66
2022-12-31T05:22:04.939Z,3.66
2022-12-31T05:24:31.870Z,3.66
2022-12-31T05:26:58.793Z,3.54
2022-12-31T05:29:26.251Z,3.59
2022-12-31T05:31:53.439Z,3.59
2022-12-31T05:34:20.749Z,3.31
2022-12-31T05:36:47.571Z,3.56
2022-12-31T05:39:14.559Z,3.47
2022-12-31T05:41:41.459Z,3.50
2022-12-31T05:44:08.328Z,3.43
2022-12-31T05:46:35.304Z,3.46
2022-12-31T05:49:02.224Z,3.44
2022-12-31T05:51:29.282Z,3.45
2022-12-31T05:53:56.110Z,3.36
2022-12-31T05:56:23.177Z,3.44
2022-12-31T05:58:50.049Z,3.48
2022-12-31T06:01:17.272Z,3.43
2022-12-31T06:03:44.617Z,3.44
2022-12-31T06:06:11.671Z,3.48
2022-12-31T06:08:38.603Z,3.50
2022-12-31T06:11:06.771Z,3.48
2022-12-31T06:13:33.682Z,3.38
2022-12-31T06:16:08.609Z,3.47
2022-12-31T06:18:35.755Z,3.46
2022-12-31T06:21:04.150Z,3.45
2022-12-31T06:23:31.658Z,3.48
2022-12-31T06:26:05.292Z,3.51
2022-12-31T06:28:32.587Z,3.50
2022-12-31T06:31:01.430Z,3.54
2022-12-31T06:33:29.207Z,3.56
2022-12-31T06:35:57.984Z,3.52
2022-12-31T06:38:26.227Z,3.58
2022-12-31T06:40:53.293Z,3.60
2022-12-31T06:43:21.084Z,3.49
2022-12-31T06:45:48.185Z,3.53
2022-12-31T06:48:16.411Z,3.61
2022-12-31T06:50:43.331Z,3.58
2022-12-31T06:53:12.083Z,3.70
2022-12-31T06:55:39.129Z,3.73
2022-12-31T06:58:06.591Z,3.73
2022-12-31T07:00:33.861Z,3.70
2022-12-31T07:03:16.097Z,3.89
2022-12-31T07:05:52.464Z,3.96
2022-12-31T07:08:19.479Z,3.99
2022-12-31T07:10:54.782Z,4.05
2022-12-31T07:13:33.870Z,4.09
2022-12-31T07:16:06.966Z,4.17
2022-12-31T07:19:07.967Z,4.23
2022-12-31T07:21:38.008Z,4.29
2022-12-31T07:24:09.837Z,4.24
2022-12-31T07:26:51.147Z,4.34
2022-12-31T07:29:56.694Z,4.48
2022-12-31T07:33:08.157Z,4.55
2022-12-31T07:35:56.637Z,4.63
2022-12-31T07:38:32.746Z,4.70
2022-12-31T07:41:24.473Z,4.77
2022-12-31T07:44:11.718Z,4.73
2022-12-31T07:46:48.698Z,4.92
2022-12-31T07:49:16.062Z,4.95
2022-12-31T07:51:43.201Z,4.91
2022-12-31T07:54:14.234Z,5.11
2022-12-31T07:56:43.043Z,5.16
2022-12-31T07:59:37.935Z,5.30
2022-12-31T08:02:04.883Z,5.34
2022-12-31T08:04:52.470Z,5.25
2022-12-31T08:07:26.810Z,5.45
2022-12-31T08:10:17.963Z,5.49
2022-12-31T08:12:49.545Z,5.56
2022-12-31T08:15:19.229Z,5.62
2022-12-31T08:17:46.355Z,5.68
2022-12-31T08:20:19.401Z,5.76
2022-12-31T08:23:11.969Z,5.82
2022-12-31T08:26:06.372Z,5.85
2022-12-31T08:29:02.709Z,6.00
2022-12-31T08:31:55.749Z,6.02
2022-12-31T08:34:49.797Z,6.17
2022-12-31T08:37:37.002Z,6.31
2022-12-31T08:40:36.416Z,6.38
2022-12-31T08:43:19.984Z,6.39
2022-12-31T08:45:49.909Z,6.39
2022-12-31T08:48:31.078Z,6.63
2022-12-31T08:50:58.477Z,6.53
2022-12-31T08:53:25.989Z,6.72
2022-12-31T08:56:01.672Z,6.84
2022-12-31T08:58:59.720Z,7.02
2022-12-31T09:01:33.974Z,7.15
2022-12-31T09:04:19.575Z,7.28
2022-12-31T09:07:02.287Z,7.30
2022-12-31T09:09:50.359Z,7.44
2022-12-31T09:12:35.712Z,7.51
2022-12-31T09:15:14.948Z,7.62
2022-12-31T09:17:46.432Z,7.61
2022-12-31T09:20:20.773Z,7.77
2022-12-31T09:22:48.583Z,7.66
2022-12-31T09:25:18.106Z,7.83
2022-12-31T09:28:08.611Z,7.84
2022-12-31T09:30:50.779Z,7.82
2022-12-31T09:33:48.804Z,7.91
2022-12-31T09:36:32.180Z,7.96
2022-12-31T09:39:14.899Z,8.10
2022-12-31T09:42:01.765Z,8.10
2022-12-31T09:44:28.860Z,8.20
2022-12-31T09:47:17.532Z,8.30
2022-12-31T09:50:33.510Z,8.28
2022-12-31T09:53:19.178Z,8.29
2022-12-31T09:55:56.364Z,8.23
2022-12-31T09:59:04.588Z,8.36
2022-12-31T10:01:57.405Z,8.44
2022-12-31T10:05:03.146Z,8.50
2022-12-31T10:07:54.374Z,8.59
2022-12-31T10:10:56.064Z,8.63
2022-12-31T10:13:45.989Z,8.67
2022-12-31T10:16:31.350Z,8.79
2022-12-31T10:19:24.541Z,8.85
2022-12-31T10:22:06.691Z,8.80
2022-12-31T10:24:50.715Z,8.86
2022-12-31T10:27:38.217Z,9.04
2022-12-31T10:30:19.057Z,9.12
2022-12-31T10:33:15.909Z,9.24
2022-12-31T10:35:45.925Z,9.29
2022-12-31T10:38:18.979Z,9.35
2022-12-31T10:41:23.148Z,9.47
2022-12-31T10:44:22.978Z,9.48
2022-12-31T10:46:58.883Z,9.72
2022-12-31T10:49:41.375Z,9.78
2022-12-31T10:52:38.184Z,9.92
2022-12-31T10:55:26.881Z,10.06
2022-12-31T10:58:27.777Z,10.17
2022-12-31T11:01:39.488Z,10.25
2022-12-31T11:04:18.917Z,10.27
2022-12-31T11:07:11.581Z,10.30
2022-12-31T11:09:41.473Z,10.40
2022-12-31T11:12:11.604Z,10.47
2022-12-31T11:14:38.608Z,10.47
2022-12-31T11:17:49.164Z,10.53
2022-12-31T11:20:25.017Z,10.61
2022-12-31T11:22:52.018Z,10.57
2022-12-31T11:26:14.628Z,10.71
2022-12-31T11:28:48.976Z,10.79
2022-12-31T11:31:48.797Z,10.81
2022-12-31T11:34:37.624Z,10.91
2022-12-31T11:37:29.302Z,10.93
2022-12-31T11:40:29.955Z,10.97
2022-12-31T11:43:10.940Z,11.04
2022-12-31T11:45:59.558Z,11.12
2022-12-31T11:48:36.947Z,11.20
2022-12-31T11:51:16.092Z,11.25
2022-12-31T11:54:04.163Z,11.34
2022-12-31T11:56:57.333Z,11.33
2022-12-31T11:59:24.615Z,11.38
2022-12-31T12:02:27.929Z,11.49
2022-12-31T12:05:02.677Z,11.45
2022-12-31T12:07:35.573Z,11.44
2022-12-31T12:10:07.420Z,11.66
2022-12-31T12:12:41.449Z,11.72
2022-12-31T12:15:11.527Z,11.85
2022-12-31T12:17:39.334Z,11.85
2022-12-31T12:20:29.428Z,11.88
2022-12-31T12:22:58.724Z,12.00
2022-12-31T12:25:36.088Z,12.08
2022-12-31T12:28:19.963Z,12.12
2022-12-31T12:30:54.820Z,12.14
2022-12-31T12:33:21.960Z,12.18
2022-12-31T12:35:48.932Z,12.13
2022-12-31T12:38:23.628Z,12.22
2022-12-31T12:40:59.676Z,12.22
2022-12-31T12:43:32.684Z,12.32
2022-12-31T12:46:02.532Z,12.16
2022-12-31T12:48:39.981Z,12.38
2022-12-31T12:51:31.236Z,12.41
2022-12-31T12:54:14.119Z,12.41
2022-12-31T12:56:52.159Z,12.48
2022-12-31T12:59:43.640Z,12.47
2022-12-31T13:02:19.972Z,12.47
2022-12-31T13:05:03.366Z,12.51
2022-12-31T13:07:53.518Z,12.58
2022-12-31T13:10:29.405Z,12.62
2022-12-31T13:13:24.551Z,12.60
2022-12-31T13:16:04.391Z,12.64
2022-12-31T13:18:50.144Z,12.67
2022-12-31T13:21:43.592Z,12.63
2022-12-31T13:24:39.617Z,12.67
2022-12-31T13:27:33.627Z,12.53
2022-12-31T13:30:03.423Z,12.62
2022-12-31T13:32:45.009Z,12.70
2022-12-31T13:35:33.698Z,12.74
2022-12-31T13:38:06.825Z,12.67
2022-12-31T13:40:52.584Z,12.81
2022-12-31T13:43:57.124Z,12.79
2022-12-31T13:46:42.812Z,12.84
2022-12-31T13:49:24.736Z,12.80
2022-12-31T13:52:01.348Z,12.79
2022-12-31T13:54:42.012Z,12.76
2022-12-31T13:57:36.547Z,12.74
2022-12-31T14:00:10.678Z,12.67
2022-12-31T14:02:48.015Z,12.76
2022-12-31T14:05:23.077Z,12.67
2022-12-31T14:07:59.498Z,12.69
2022-12-31T14:11:00.746Z,12.69
2022-12-31T14:13:40.207Z,12.64
2022-12-31T14:16:07.142Z,12.61
2022-12-31T14:19:05.250Z,12.53
2022-12-31T14:21:53.573Z,12.46
2022-12-31T14:24:44.765Z,12.40
2022-12-31T14:27:21.043Z,12.29
2022-12-31T14:30:01.729Z,12.21
2022-12-31T14:32:55.147Z,12.14
2022-12-31T14:35:48.420Z,12.01
2022-12-31T14:38:42.192Z,11.91
2022-12-31T14:41:11.300Z,11.81
2022-12-31T14:43:46.299Z,11.72
2022-12-31T14:46:29.888Z,11.59
2022-12-31T14:49:00.505Z,11.58
2022-12-31T14:51:31.007Z,11.48
2022-12-31T14:53:58.879Z,11.39
2022-12-31T14:56:26.054Z,11.30
2022-12-31T14:59:01.501Z,11.06
2022-12-31T15:01:29.575Z,10.94
2022-12-31T15:03:58.215Z,10.99
2022-12-31T15:06:48.004Z,10.87
2022-12-31T15:09:40.833Z,10.83
2022-12-31T15:12:33.467Z,10.74
2022-12-31T15:15:25.230Z,10.62
2022-12-31T15:17:54.949Z,10.56
2022-12-31T15:20:24.762Z,10.50
2022-12-31T15:22:52.928Z,10.36
2022-12-31T15:25:25.555Z,10.35
2022-12-31T15:27:53.007Z,10.27
2022-12-31T15:30:44.438Z,10.19
2022-12-31T15:33:32.948Z,9.83
2022-12-31T15:36:18.143Z,9.96
2022-12-31T15:38:46.211Z,9.92
2022-12-31T15:41:16.960Z,9.80
2022-12-31T15:43:50.701Z,9.70
2022-12-31T15:46:22.754Z,9.67
2022-12-31T15:49:01.995Z,9.62
2022-12-31T15:51:45.383Z,9.53
2022-12-31T15:54:24.353Z,9.43
2022-12-31T15:56:54.545Z,9.34
2022-12-31T15:59:23.448Z,9.35
2022-12-31T16:01:50.700Z,9.26
2022-12-31T16:04:23.870Z,9.22
2022-12-31T16:06:52.411Z,9.06
2022-12-31T16:09:34.233Z,9.04
2022-12-31T16:12:03.806Z,8.99
2022-12-31T16:14:40.503Z,8.93
2022-12-31T16:17:21.801Z,8.89
2022-12-31T16:19:48.611Z,8.84
2022-12-31T16:22:39.802Z,8.79
2022-12-31T16:25:32.645Z,8.74
2022-12-31T16:27:55.773Z,8.56
2022-12-31T16:30:32.291Z,8.58
2022-12-31T16:33:02.462Z,8.56
2022-12-31T16:35:32.150Z,8.52
2022-12-31T16:38:03.736Z,8.51
2022-12-31T16:40:31.061Z,8.30
2022-12-31T16:42:58.072Z,8.31
2022-12-31T16:45:36.459Z,8.29
2022-12-31T16:48:17.349Z,8.29
2022-12-31T16:51:03.487Z,8.21
2022-12-31T16:53:34.595Z,8.15
2022-12-31T16:56:05.648Z,8.10
2022-12-31T16:58:36.397Z,8.01
2022-12-31T17:01:19.449Z,8.00
2022-12-31T17:03:52.053Z,7.97
2022-12-31T17:06:20.845Z,7.96
2022-12-31T17:09:15.731Z,7.85
2022-12-31T17:11:56.103Z,7.91
2022-12-31T17:14:26.927Z,7.82
2022-12-31T17:17:24.898Z,7.88
2022-12-31T17:19:57.837Z,7.79
2022-12-31T17:22:35.838Z,7.80
2022-12-31T17:25:25.733Z,7.81
2022-12-31T17:27:56.472Z,7.80
2022-12-31T17:30:38.042Z,7.80
2022-12-31T17:33:08.269Z,7.77
2022-12-31T17:35:37.662Z,7.75
2022-12-31T17:38:23.150Z,7.74
2022-12-31T17:40:54.437Z,7.67
2022-12-31T17:43:23.806Z,7.53
2022-12-31T17:45:52.957Z,7.62
2022-12-31T17:48:23.117Z,7.57
2022-12-31T17:50:52.370Z,7.58
2022-12-31T17:53:19.840Z,7.57
2022-12-31T17:55:56.995Z,7.53
2022-12-31T17:58:38.455Z,7.49
2022-12-31T18:01:07.825Z,7.44
2022-12-31T18:03:35.187Z,7.39
2022-12-31T18:06:02.488Z,7.39
2022-12-31T18:08:29.473Z,7.37
2022-12-31T18:10:56.725Z,7.29
2022-12-31T18:13:25.629Z,7.23
2022-12-31T18:15:53.270Z,7.32
2022-12-31T18:18:28.894Z,7.24
2022-12-31T18:20:59.239Z,7.28
2022-12-31T18:23:35.505Z,7.13
2022-12-31T18:26:02.368Z,7.11
2022-12-31T18:28:49.233Z,7.18
2022-12-31T18:31:18.044Z,7.15
2022-12-31T18:33:46.937Z,7.08
2022-12-31T18:36:16.946Z,7.04
2022-12-31T18:38:44.053Z,7.07
2022-12-31T18:41:24.169Z,7.00
2022-12-31T18:43:51.255Z,6.89
2022-12-31T18:46:20.621Z,6.98
2022-12-31T18:48:48.189Z,6.96
2022-12-31T18:51:18.297Z,6.92
2022-12-31T18:53:45.753Z,6.90
2022-12-31T18:56:15.356Z,6.68
2022-12-31T18:58:43.333Z,6.76
2022-12-31T19:01:37.772Z,6.76
2022-12-31T19:04:11.213Z,6.74
2022-12-31T19:06:38.299Z,6.67
2022-12-31T19:09:13.288Z,6.65
2022-12-31T19:11:52.927Z,6.62
2022-12-31T19:14:24.157Z,6.23
2022-12-31T19:16:53.230Z,6.51
2022-12-31T19:19:21.045Z,6.59
2022-12-31T19:21:48.224Z,6.59
2022-12-31T19:24:16.794Z,6.61
2022-12-31T19:26:44.135Z,6.55
2022-12-31T19:29:17.799Z,6.56
2022-12-31T19:31:45.090Z,6.56
2022-12-31T19:34:12.296Z,6.49
2022-12-31T19:36:44.084Z,6.45
2022-12-31T19:39:20.556Z,6.49
2022-12-31T19:41:54.695Z,6.45
2022-12-31T19:44:26.581Z,6.46
2022-12-31T19:46:53.841Z,6.39
2022-12-31T19:49:20.825Z,6.40
2022-12-31T19:51:48.183Z,6.41
2022-12-31T19:54:15.154Z,6.36
2022-12-31T19:56:42.063Z,6.39
2022-12-31T19:59:10.931Z,6.29
2022-12-31T20:01:38.397Z,6.28
2022-12-31T20:04:05.620Z,6.30
2022-12-31T20:06:32.955Z,6.27
2022-12-31T20:09:00.131Z,6.23
2022-12-31T20:11:27.881Z,6.22
2022-12-31T20:13:55.041Z,6.16
2022-12-31T20:16:24.626Z,6.05
2022-12-31T20:18:52.266Z,6.13
2022-12-31T20:21:22.847Z,6.11
2022-12-31T20:23:51.287Z,5.97
2022-12-31T20:26:19.126Z,6.05
2022-12-31T20:28:46.794Z,6.04
2022-12-31T20:31:16.711Z,5.93
2022-12-31T20:33:44.608Z,5.97
2022-12-31T20:36:14.564Z,5.94
2022-12-31T20:38:41.598Z,5.91
2022-12-31T20:41:14.156Z,5.97
2022-12-31T20:43:41.620Z,5.90
2022-12-31T20:46:15.443Z,5.92
2022-12-31T20:48:44.356Z,5.81
2022-12-31T20:51:13.068Z,5.85
2022-12-31T20:53:45.052Z,5.82
2022-12-31T20:56:11.955Z,5.85
2022-12-31T20:58:38.888Z,5.82
2022-12-31T21:01:08.225Z,5.81
2022-12-31T21:06:28.765Z,5.78
2022-12-31T21:08:57.420Z,5.78
2022-12-31T21:11:43.524Z,5.76
2022-12-31T21:14:10.489Z,5.79
2022-12-31T21:16:37.550Z,5.72
2022-12-31T21:19:05.520Z,5.62
2022-12-31T21:21:32.785Z,5.71
2022-12-31T21:23:59.719Z,5.63
2022-12-31T21:26:26.885Z,5.55
2022-12-31T21:28:54.140Z,5.56
2022-12-31T21:31:21.314Z,5.53
2022-12-31T21:33:48.618Z,5.54
2022-12-31T21:36:16.281Z,5.46
2022-12-31T21:38:44.523Z,5.49
2022-12-31T21:41:34.151Z,5.41
2022-12-31T21:44:02.932Z,5.37
2022-12-31T21:46:30.179Z,5.35
2022-12-31T21:48:58.529Z,5.30
2022-12-31T21:51:26.046Z,5.34
2022-12-31T21:53:53.185Z,5.32
2022-12-31T21:56:21.373Z,5.28
2022-12-31T21:59:16.946Z,5.26
2022-12-31T22:02:03.188Z,5.21
2022-12-31T22:07:17.479Z,5.11
2022-12-31T22:09:44.550Z,4.81
2022-12-31T22:12:11.544Z,4.97
2022-12-31T22:14:38.457Z,5.03
2022-12-31T22:17:05.826Z,4.97
2022-12-31T22:19:43.524Z,4.98
2022-12-31T22:22:19.998Z,4.93
2022-12-31T22:24:46.915Z,4.99
2022-12-31T22:27:29.604Z,4.95
2022-12-31T22:29:56.702Z,4.49
2022-12-31T22:32:23.577Z,4.92
2022-12-31T22:34:50.422Z,4.95
2022-12-31T22:37:54.454Z,4.82
2022-12-31T22:40:04.845Z,4.88
2022-12-31T22:42:31.992Z,4.89
2022-12-31T22:44:58.874Z,4.90
2022-12-31T22:47:25.885Z,4.78
2022-12-31T22:49:52.807Z,4.86
2022-12-31T22:52:19.721Z,4.84
2022-12-31T22:54:46.680Z,4.82
2022-12-31T22:57:19.769Z,4.76
2022-12-31T22:59:47.275Z,4.73
2022-12-31T23:02:14.206Z,4.65
2022-12-31T23:04:41.401Z,4.70
2022-12-31T23:07:08.781Z,4.57
2022-12-31T23:09:54.261Z,4.69
2022-12-31T23:12:21.233Z,4.74
2022-12-31T23:15:06.680Z,4.75
2022-12-31T23:17:52.010Z,4.79
2022-12-31T23:20:41.047Z,4.74
2022-12-31T23:23:11.973Z,4.62
2022-12-31T23:25:44.158Z,4.67
2022-12-31T23:28:22.057Z,4.56
2022-12-31T23:30:54.085Z,4.69
2022-12-31T23:33:24.069Z,4.69
2022-12-31T23:36:01.088Z,4.58
2022-12-31T23:38:28.025Z,4.69
2022-12-31T23:40:54.851Z,4.63
2022-12-31T23:43:22.493Z,4.62
2022-12-31T23:45:51.254Z,4.71
2022-12-31T23:48:18.324Z,4.66
2022-12-31T23:50:50.807Z,4.70
2022-12-31T23:53:19.844Z,4.69
2022-12-31T23:55:46.691Z,4.61
2022-12-31T23:58:13.568Z,4.51
